Terminal Aerodrome Forecast
Issued by NWS Pocatello, ID

Home | Current Version | Previous Version | Text Only | Print | Product List | Glossary On
Versions: 1 2 3 4 5 6 7 8 9 10 11 12 13 14
000
FTUS45 KPIH 231700
TAFIDA
TAF
KIDA 231720Z 2318/2418 21010KT P6SM SCT150
     FM231900 21015G23KT P6SM SCT200
     FM240300 20012KT P6SM VCSH SCT110 BKN140
     FM241400 22020G30KT P6SM VCSH SCT110 BKN140=

USA.gov is the U.S. government's official web portal to all federal, state and local government web resources and services.